Stations météo

Publicité
Coventry/Coundon, Grande-Bretagne (99070): Température de l'air & dewpoint: 21.10.2020 18:00:00 - 27.10.2020 18:00:00 (GMT)Coventry/Coundon, Grande-Bretagne (99070): Température de l'air -20cm & Température de l'air -100cm: 21.10.2020 18:00:00 - 27.10.2020 18:00:00 (GMT)Coventry/Coundon, Grande-Bretagne (99070): Vitesse du vent & gusts: 21.10.2020 18:00:00 - 27.10.2020 18:00:00 (GMT)Coventry/Coundon, Grande-Bretagne (99070): Direction du vent: 21.10.2020 18:00:00 - 27.10.2020 18:00:00 (GMT)Coventry/Coundon, Grande-Bretagne (99070): Ensoleillement: 21.10.2020 18:00:00 - 27.10.2020 18:00:00 (GMT)Coventry/Coundon, Grande-Bretagne (99070): Quantités de précipitations: 21.10.2020 18:00:00 - 27.10.2020 18:00:00 (GMT)
Date & Time tt [°C] td [°C] tt -20cm [°C] tt -100cm [°C] ff [km/h] ff [knt] fx [km/h] fx [knt] dd sd [min] rr [mm]
27.10.2020 18:00:00 - - - - - - - - - - -
27.10.2020 17:00:00 10,4 6,5 - - 18 10 - - WSW 6 0,0
27.10.2020 16:00:00 11,3 8,8 - - 15 8 - - W 12 0,4
27.10.2020 15:00:00 12,5 10,9 - - 16 9 - - WSW 6 0,4
27.10.2020 14:00:00 11,8 11,7 - - 11 6 - - S 0 1,4
27.10.2020 13:00:00 11,0 10,8 - - 15 8 - - S 0 0,8
27.10.2020 12:00:00 10,1 9,7 - - 15 8 - - S 0 0,8
27.10.2020 11:00:00 9,2 8,7 - - 11 6 - - SSE 0 0,4
27.10.2020 10:00:00 8,4 8,0 - - 13 7 - - S 0 0,0
27.10.2020 09:00:00 7,8 7,1 11,0 12,7 15 8 - - S 0 0,0
27.10.2020 08:00:00 7,7 6,8 - - 11 6 - - S 0 0,2
27.10.2020 07:00:00 7,6 7,0 - - 13 7 - - S 0 0,0
27.10.2020 06:00:00 6,5 5,9 - - 8 4 - - S 0 0,0
27.10.2020 05:00:00 6,7 6,1 - - 8 4 - - SSW 0 0,0
27.10.2020 04:00:00 6,1 5,9 - - 8 4 - - SSW 0 0,0
27.10.2020 03:00:00 5,1 4,5 - - 4 2 - - S 0 0,0
27.10.2020 02:00:00 5,5 4,8 - - 5 3 - - S 0 0,0
27.10.2020 01:00:00 6,4 5,4 - - 8 4 - - SW 0 0,0
27.10.2020 00:00:00 6,9 5,5 - - 9 5 - - SW - 0,0
26.10.2020 23:00:00 7,1 5,6 - - 8 4 - - SW 0 0,0
26.10.2020 22:00:00 7,5 6,0 - - 9 5 - - WSW 0 0,0
26.10.2020 21:00:00 7,6 5,9 - - 9 5 - - WSW 0 0,0
26.10.2020 20:00:00 7,9 5,7 - - 9 5 - - WSW 0 0,0
26.10.2020 19:00:00 8,4 5,8 - - 9 5 - - SW 0 0,0
26.10.2020 18:00:00 9,0 6,0 - - 9 5 - - WSW 0 0,0
26.10.2020 17:00:00 10,1 5,9 - - 13 7 - - W 12 0,0
26.10.2020 16:00:00 11,2 5,5 - - 18 10 - - WSW 48 0,0
26.10.2020 15:00:00 12,2 6,4 - - 15 8 - - W 24 0,0
26.10.2020 14:00:00 11,8 8,2 - - 9 5 - - WNW 24 0,2
26.10.2020 13:00:00 12,9 7,6 - - 16 9 - - WSW 36 0,0
26.10.2020 12:00:00 11,2 8,7 - - 15 8 - - WSW 18 0,0
26.10.2020 11:00:00 10,1 9,4 - - 11 6 - - WSW 12 0,2
26.10.2020 10:00:00 9,0 8,3 - - 15 8 - - SW 6 0,0
26.10.2020 09:00:00 7,4 7,3 11,2 12,9 9 5 - - SSW 0 0,2
26.10.2020 08:00:00 6,1 6,0 - - 5 3 - - SSW 0 0,2
26.10.2020 07:00:00 4,8 4,7 - - 8 4 - - S 0 0,0
26.10.2020 06:00:00 4,5 4,3 - - 5 3 - - S 0 0,2
26.10.2020 05:00:00 4,4 4,2 - - 5 3 - - SSW 0 0,0
26.10.2020 04:00:00 4,5 4,3 - - 5 3 - - S 0 0,0
26.10.2020 03:00:00 4,7 4,5 - - 5 3 - - SSW 0 0,0
26.10.2020 02:00:00 4,8 4,6 - - 5 3 - - S 0 0,0
26.10.2020 01:00:00 5,1 4,7 - - 8 4 - - S 0 0,0
26.10.2020 00:00:00 5,5 5,1 - - 5 3 - - SSW - 0,0
25.10.2020 23:00:00 5,8 5,2 - - 5 3 - - SSW 0 0,0
25.10.2020 22:00:00 6,5 5,9 - - 5 3 - - SSW 0 0,0
25.10.2020 21:00:00 6,7 5,9 - - 5 3 - - SSW 0 0,0
25.10.2020 20:00:00 7,5 6,8 - - 9 5 - - S 0 0,2
25.10.2020 19:00:00 7,5 6,4 - - 8 4 - - SSW 0 0,0
25.10.2020 18:00:00 7,3 5,9 - - 5 3 - - SSW 0 0,0
25.10.2020 17:00:00 8,1 6,2 - - 8 4 - - SSW 0 0,0
25.10.2020 16:00:00 9,8 6,7 - - 8 4 - - SSW 12 0,4
25.10.2020 15:00:00 9,7 6,4 - - 15 8 - - W 0 0,2
25.10.2020 14:00:00 12,8 4,8 - - 21 11 - - SW 48 0,0
25.10.2020 13:00:00 12,5 6,5 - - 15 8 - - SW 24 0,0
25.10.2020 12:00:00 11,6 5,8 - - 16 9 - - SW 24 0,0
25.10.2020 11:00:00 11,8 5,9 - - 15 8 - - SW 54 0,0
25.10.2020 10:00:00 11,3 7,4 - - 13 7 - - SSW 42 0,0
25.10.2020 09:00:00 8,9 6,5 11,7 13,0 11 6 - - SSW 36 0,2
25.10.2020 08:00:00 7,4 6,5 - - 9 5 - - SSW 6 0,0
25.10.2020 07:00:00 6,3 5,7 - - 9 5 - - S 0 0,0
25.10.2020 06:00:00 6,1 5,6 - - 8 4 - - S 0 0,0
25.10.2020 05:00:00 6,6 6,1 - - 5 3 - - S 0 0,0
25.10.2020 04:00:00 6,7 6,2 - - 8 4 - - S 0 0,0
25.10.2020 03:00:00 6,9 6,6 - - 9 5 - - SSW 0 0,0
25.10.2020 02:00:00 6,5 5,9 - - 5 3 - - SSW 0 0,0
25.10.2020 01:00:00 7,1 6,3 - - 5 3 - - S 0 0,0
25.10.2020 00:00:00 - - - - - - - - - - -
24.10.2020 23:00:00 9,1 7,6 - - 8 4 - - SW 0 0,2
24.10.2020 22:00:00 9,7 8,6 - - 9 5 - - SW 0 2,4
24.10.2020 21:00:00 10,9 9,9 - - 11 6 - - SW 0 0,2
24.10.2020 20:00:00 11,3 10,1 - - 15 8 - - SSW 0 0,6
24.10.2020 19:00:00 12,0 10,5 - - 13 7 - - SSW 0 0,2
24.10.2020 18:00:00 12,5 10,3 - - 18 10 - - SSW 0 0,2
24.10.2020 17:00:00 12,8 10,8 - - 18 10 46 25 SSW 0 0,0
24.10.2020 16:00:00 12,3 11,1 - - 21 11 - - SSW 0 4,6
24.10.2020 15:00:00 14,2 13,0 - - 18 10 - - S 0 4,2
24.10.2020 14:00:00 13,7 12,9 - - 18 10 - - S 0 0,6
24.10.2020 13:00:00 13,4 12,7 - - 15 8 - - S 0 0,2
24.10.2020 12:00:00 13,3 11,9 - - 15 8 - - S 0 -
24.10.2020 11:00:00 12,8 11,3 - - 16 9 - - S 0 0,0
24.10.2020 10:00:00 12,1 10,2 - - 18 10 - - S 0 0,0
24.10.2020 09:00:00 11,0 9,8 11,7 13,0 16 9 - - S 0 0,0
24.10.2020 08:00:00 10,3 8,3 - - 13 7 - - S 0 0,0
24.10.2020 07:00:00 9,2 7,3 - - 15 8 - - S 0 0,0
24.10.2020 06:00:00 9,0 6,9 - - 16 9 - - SSW 0 0,0
24.10.2020 05:00:00 8,1 6,5 - - 13 7 - - S 0 0,0
24.10.2020 04:00:00 7,2 5,7 - - 11 6 - - S 0 0,0
24.10.2020 03:00:00 6,8 4,8 - - 13 7 - - S 0 0,0
24.10.2020 02:00:00 6,3 4,6 - - 9 5 - - S 0 0,0
24.10.2020 01:00:00 5,7 4,5 - - 8 4 - - S 0 0,0
24.10.2020 00:00:00 6,0 4,4 - - 5 3 - - S - 0,0
23.10.2020 23:00:00 5,8 3,9 - - 5 3 - - SSW 0 0,0
23.10.2020 22:00:00 6,0 3,6 - - 4 2 - - SSW 0 0,0
23.10.2020 21:00:00 6,8 3,7 - - 4 2 - - SSW 0 0,0
23.10.2020 20:00:00 7,8 4,0 - - 11 6 - - WSW 0 0,0
23.10.2020 19:00:00 7,8 3,9 - - 8 4 - - WSW 0 0,0
23.10.2020 18:00:00 8,9 3,9 - - 8 4 - - WSW 0 0,0
23.10.2020 17:00:00 10,1 3,9 - - 9 5 - - W 12 0,0
23.10.2020 16:00:00 11,6 5,1 - - 13 7 - - W 30 0,0
23.10.2020 15:00:00 12,0 7,1 - - 16 9 - - W 0 0,0
23.10.2020 14:00:00 12,5 9,1 - - 15 8 - - SW 0 0,0
23.10.2020 13:00:00 12,9 9,5 - - 15 8 - - SW 6 0,0
23.10.2020 12:00:00 11,9 10,0 - - 13 7 - - SSW 0 0,2
23.10.2020 11:00:00 11,5 10,2 - - 11 6 - - SW 0 0,0
23.10.2020 10:00:00 11,2 10,1 - - 8 4 - - SSW 0 0,0
23.10.2020 09:00:00 10,7 10,1 12,2 13,0 11 6 - - SSW 0 0,0
23.10.2020 08:00:00 10,1 9,8 - - 8 4 - - SW 0 0,0
23.10.2020 07:00:00 9,6 9,4 - - 8 4 - - SW 0 0,0
23.10.2020 06:00:00 9,1 8,9 - - 4 2 - - SSW 0 0,0
23.10.2020 05:00:00 8,7 8,4 - - 4 2 - - E 0 0,4
23.10.2020 04:00:00 8,6 8,1 - - 2 1 - - S 0 0,4
23.10.2020 03:00:00 8,5 7,4 - - 5 3 - - SE 0 0,0
23.10.2020 02:00:00 8,7 6,5 - - 5 3 - - SSE 0 0,0
23.10.2020 01:00:00 8,7 6,3 - - 4 2 - - S 0 0,0
23.10.2020 00:00:00 8,4 6,0 - - 4 2 - - S - 0,0
22.10.2020 23:00:00 8,2 5,6 - - 4 2 - - S 0 0,0
22.10.2020 22:00:00 7,7 5,2 - - 2 1 - - SW 0 0,0
22.10.2020 21:00:00 8,4 5,1 - - 5 3 - - WSW 0 0,0
22.10.2020 20:00:00 9,4 5,2 - - 5 3 - - WSW 0 0,0
22.10.2020 19:00:00 9,4 4,8 - - 4 2 - - SW 0 0,0
22.10.2020 18:00:00 10,5 4,9 - - 8 4 - - WSW 0 0,0
22.10.2020 17:00:00 11,0 4,6 - - 9 5 - - WSW 0 0,0
22.10.2020 16:00:00 11,5 3,8 - - 13 7 - - WSW 42 0,0
22.10.2020 15:00:00 13,0 4,5 - - 11 6 - - WSW 60 0,0
22.10.2020 14:00:00 - - - - - - - - - 60 0,0
22.10.2020 13:00:00 - - - - - - - - - 60 0,0
22.10.2020 12:00:00 - - - - - - - - - 36 0,0
22.10.2020 11:00:00 - - - - - - - - - - -
22.10.2020 10:00:00 10,9 6,4 - - 16 9 - - WSW 60 0,0
22.10.2020 09:00:00 9,9 7,1 12,7 13,0 13 7 - - WSW 6 0,0
22.10.2020 08:00:00 9,7 7,4 - - 13 7 - - WSW 0 0,0
22.10.2020 07:00:00 9,7 8,6 - - 9 5 - - WSW 0 0,0
22.10.2020 06:00:00 10,1 8,8 - - 11 6 - - W 0 0,2
22.10.2020 05:00:00 10,9 9,9 - - 13 7 - - WSW 0 0,0
22.10.2020 04:00:00 10,9 10,2 - - 9 5 - - SW 0 0,0
22.10.2020 03:00:00 11,0 10,3 - - 11 6 - - SW 0 0,0
22.10.2020 02:00:00 10,9 10,5 - - 9 5 - - SW 0 0,0
22.10.2020 01:00:00 11,1 10,6 - - 9 5 - - SW 0 0,0
22.10.2020 00:00:00 11,3 10,7 - - 9 5 - - SW - 0,4
21.10.2020 23:00:00 12,8 12,2 - - 13 7 - - SSW 0 0,2
21.10.2020 22:00:00 13,1 12,6 - - 9 5 - - SSW 0 0,0
21.10.2020 21:00:00 13,1 12,7 - - 9 5 - - SSW 0 0,2
21.10.2020 20:00:00 13,0 12,5 - - 11 6 - - SW 0 0,4
21.10.2020 19:00:00 13,3 12,5 - - 13 7 - - SSW 0 0,0
21.10.2020 18:00:00 13,4 12,8 - - 11 6 - - SW 0 0,0

tt = Température de l'air
td = dewpoint
tt -20cm = Température de l'air -20cm
tt -100cm = Température de l'air -100cm
ff = Vitesse du vent
fx = gusts
dd = Direction du vent
sd = Ensoleillement
rr = Quantités de précipitations

stations d'obs. à proximité